• Join FlightAware (Why Join?)
  • Login
  • US Flag 
08:45AM EDT


 

Airport Tracker/Info


-or-


 

Live Flight TrackerFlight Track Log ✈ SWA2182 ✈ 09-Apr-2013 ✈ KBOS - KBWI

Flight Track Log - Related Links

Times and Time Zones

All times are in EDT time to prevent confusion due to time zone crossing. See the SWA2182 flight status page for this flight to view local times or setup timezone preferences in your user account.

Time Position Orientation Groundspeed Altitude Reporting Facility
EDT Latitude Longitude Course Direction KTS MPH feet Rate Location/Type
09:16PM 42.3667 -70.9833 90° East 131 151 1,300  Level KA90
09:17PM 42.3667 -70.9500 90° East 169 194 1,900 2,880 Climbing KA90
09:18PM 42.3833 -70.8667 75° East 250 288 5,400 3,660 Climbing KA90
09:18PM 42.3850 -70.8519 81° East 321 369 6,600 3,900 Climbing Boston Center
09:19PM 42.3586 -70.7486 109° East 295 339 10,900 4,140 Climbing Boston Center
09:20PM 42.2689 -70.7428 177° South 241 277 14,900 4,260 Climbing Boston Center
09:21PM 42.2119 -70.8394 232° Southwest 227 261 19,400 3,660 Climbing Boston Center
09:22PM 42.1931 -70.9858 260° West 280 322 23,100 2,880 Climbing Boston Center
09:23PM 42.1758 -71.1150 260° West 323 372 25,900 1,740 Climbing Boston Center
09:24PM 42.1547 -71.2667 259° West 364 419 26,600 960 Climbing Boston Center
09:25PM 42.1372 -71.4014 260° West 377 434 27,900 600 Climbing Boston Center
09:26PM 42.1175 -71.5417 259° West 377 434 27,900 720 Level Boston Center
09:27PM 42.0936 -71.6819 257° West 377 434 29,400 1,980 Climbing Boston Center
09:28PM 42.0717 -71.8275 259° West 388 447 31,900 1,260 Climbing Boston Center
09:29PM 42.0514 -71.9703 259° West 393 452 32,000 -300 Climbing Boston Center
09:30PM 41.9978 -72.0992 241° Southwest 393 452 31,300 -840 Descending Boston Center
09:31PM 41.9375 -72.2308 238° Southwest 393 452 30,400 -660 Descending Boston Center
09:32PM 41.8731 -72.3619 237° Southwest 414 476 30,000 -240 Descending Boston Center
09:33PM 41.8106 -72.4958 238° Southwest 428 493 30,000  Level Boston Center
09:34PM 41.7500 -72.6264 238° Southwest 428 493 30,000  Level Boston Center
09:35PM 41.6850 -72.7597 237° Southwest 428 493 30,000  Level Boston Center
09:36PM 41.6200 -72.8900 236° Southwest 434 499 30,000  Level Boston Center
09:37PM 41.5569 -73.0197 237° Southwest 434 499 30,000 -60 Level Boston Center
09:38PM 41.5022 -73.1331 237° Southwest 434 499 29,900 -60 Descending Boston Center
09:39PM 41.4386 -73.2653 237° Southwest 434 499 29,900  Level Boston Center
09:41PM 41.2975 -73.5519 237° Southwest 426 490 29,900 -240 Level New York Center
09:42PM 41.2258 -73.6786 233° Southwest 431 496 29,300 -840 Descending New York Center
09:43PM 41.1517 -73.8050 232° Southwest 436 502 28,300 -1,020 Descending New York Center
09:44PM 41.0778 -73.9283 232° Southwest 441 507 27,300 -1,140 Descending New York Center
09:45PM 41.0036 -74.0458 230° Southwest 429 494 26,100 -720 Descending New York Center
09:46PM 40.9403 -74.1553 233° Southwest 412 474 25,900 -120 Descending New York Center
09:47PM 40.8703 -74.2697 231° Southwest 406 467 25,900  Level New York Center
09:48PM 40.8000 -74.3842 231° Southwest 406 467 26,000  Climbing New York Center
09:49PM 40.7275 -74.5033 231° Southwest 411 473 25,900 -60 Descending New York Center
09:50PM 40.6550 -74.6281 233° Southwest 417 480 25,900  Level New York Center
09:51PM 40.5822 -74.7442 230° Southwest 422 486 25,900  Level New York Center
09:52PM 40.5058 -74.8461 225° Southwest 433 498 25,900  Level New York Center
09:53PM 40.4267 -74.9669 229° Southwest 438 504 25,900  Level New York Center
09:54PM 40.3453 -75.0792 226° Southwest 438 504 25,900 -1,200 Level New York Center
09:55PM 40.2661 -75.1939 228° Southwest 432 497 23,600 -2,940 Descending New York Center
09:56PM 40.1889 -75.3031 227° Southwest 422 486 20,100 -2,820 Descending New York Center
09:57PM 40.1100 -75.4039 224° Southwest 409 471 18,000 -1,080 Descending New York Center
09:58PM 40.0308 -75.5122 226° Southwest 386 444 18,000  Level New York Center
09:59PM 39.9600 -75.6133 228° Southwest 379 436 18,000  Level New York Center
10:00PM 39.8931 -75.7167 230° Southwest 379 436 18,000 -120 Level New York Center
10:01PM 39.8339 -75.8317 236° Southwest 379 436 17,800 -1,380 Descending New York Center
10:02PM 39.7861 -75.9256 237° Southwest 374 430 15,300 -2,580 Descending New York Center
10:03PM 39.7250 -76.0369 235° Southwest 362 417 12,800 -1,320 Descending New York Center
10:05PM 39.6500 -76.1667 233° Southwest 266 306 12,000 -1,020 Descending Potomac TRACON
10:06PM 39.6167 -76.2500 243° Southwest 266 306 10,200 -1,800 Descending Potomac TRACON
10:07PM 39.5833 -76.3333 243° Southwest 258 297 8,400 -1,860 Descending Potomac TRACON
10:08PM 39.5667 -76.4167 255° West 255 293 6,500 -1,740 Descending Potomac TRACON
10:09PM 39.5333 -76.5000 243° Southwest 255 293 5,000 -720 Descending Potomac TRACON
10:10PM 39.5000 -76.6000 247° West 243 280 5,000  Level Potomac TRACON
10:11PM 39.4667 -76.6667 237° Southwest 243 280 5,000 -540 Level Potomac TRACON
10:12PM 39.4167 -76.7333 226° Southwest 245 282 4,000 -540 Descending Potomac TRACON
10:13PM 39.3667 -76.7667 207° Southwest 242 278 4,000 -480 Level Potomac TRACON
10:14PM 39.3000 -76.8167 210° Southwest 237 273 3,000 -960 Descending Potomac TRACON